Time;durP1;ratioP1;P1;durP2;ratioP2;P2;SDS_P1;SDS_P2;PMS_P1;PMS_P2;Temp;Humidity;BMP_temperature;BMP_pressure;BME280_temperature;BME280_humidity;BME280_pressure;Samples;Min_cycle;Max_cycle;Signal;HPM_P1;HPM_P2
2023/04/26 00:00:42;;;;;;;;;;;5.10;99.90;;;;;;4934624;29;19922;-69
2023/04/26 00:03:08;;;;;;;;;;;5.10;99.90;;;;;;4934538;29;20312;-69
2023/04/26 00:05:34;;;;;;;;;;;5.10;99.90;;;;;;4934060;29;19921;-69
2023/04/26 00:08:03;;;;;;;;;;;4.90;99.90;;;;;;4933787;29;19910;-69
2023/04/26 00:10:29;;;;;;;;;;;5.00;99.90;;;;;;4933842;29;19998;-69
2023/04/26 00:12:54;;;;;;;;;;;5.00;99.90;;;;;;4935423;29;19997;-69
2023/04/26 00:15:20;;;;;;;;;;;4.90;99.90;;;;;;4943881;29;20304;-69
2023/04/26 00:17:46;;;;;;;;;;;5.00;99.90;;;;;;4933802;29;19950;-69
2023/04/26 00:20:12;;;;;;;;;;;4.80;99.90;;;;;;4934305;29;20307;-68
2023/04/26 00:22:38;;;;;;;;;;;4.90;99.90;;;;;;4933757;29;19949;-69
2023/04/26 00:25:04;;;;;;;;;;;4.80;99.90;;;;;;4949968;29;19915;-68
2023/04/26 00:27:30;;;;;;;;;;;4.70;99.90;;;;;;4933877;29;19915;-69
2023/04/26 00:29:56;;;;;;;;;;;4.60;99.90;;;;;;4933118;29;19918;-69
2023/04/26 00:32:22;;;;;;;;;;;4.60;99.90;;;;;;4947851;29;19925;-68
2023/04/26 00:34:47;;;;;;;;;;;4.70;99.90;;;;;;4933737;29;20315;-69
2023/04/26 00:37:13;;;;;;;;;;;4.70;99.90;;;;;;4932171;29;19923;-69
2023/04/26 00:39:40;;;;;;;;;;;4.70;99.90;;;;;;4933827;29;19914;-70
2023/04/26 00:42:07;;;;;;;;;;;4.60;99.90;;;;;;4933643;29;20332;-69
2023/04/26 00:44:33;;;;;;;;;;;4.60;99.90;;;;;;4950017;29;19939;-70
2023/04/26 00:46:59;;;;;;;;;;;4.60;99.90;;;;;;4934194;29;19915;-69
2023/04/26 00:49:25;;;;;;;;;;;4.60;99.90;;;;;;4934076;29;20423;-69
2023/04/26 00:51:51;;;;;;;;;;;4.50;99.90;;;;;;4933384;29;19965;-69
2023/04/26 00:54:16;;;;;;;;;;;4.50;99.90;;;;;;4946548;29;20037;-69
2023/04/26 00:56:42;;;;;;;;;;;4.50;99.90;;;;;;4929607;29;20004;-70
2023/04/26 00:59:07;;;;;;;;;;;4.60;99.90;;;;;;4918180;29;19926;-69
2023/04/26 01:01:34;;;;;;;;;;;4.60;99.90;;;;;;4916985;29;19969;-69
2023/04/26 01:04:00;;;;;;;;;;;4.60;99.90;;;;;;4916968;29;19925;-69
2023/04/26 01:06:27;;;;;;;;;;;4.70;99.90;;;;;;4916677;29;19911;-70
2023/04/26 01:08:53;;;;;;;;;;;4.50;99.90;;;;;;4902332;29;20533;-70
2023/04/26 01:11:21;;;;;;;;;;;4.60;99.90;;;;;;4921376;29;19911;-69
2023/04/26 01:13:47;;;;;;;;;;;4.50;99.90;;;;;;4922658;29;20010;-70
2023/04/26 01:16:12;;;;;;;;;;;4.60;99.90;;;;;;4912719;29;20287;-69
2023/04/26 01:18:38;;;;;;;;;;;4.60;99.90;;;;;;4918308;29;20236;-70
2023/04/26 01:21:04;;;;;;;;;;;4.60;99.90;;;;;;4932857;29;19922;-69
2023/04/26 01:23:30;;;;;;;;;;;4.50;99.90;;;;;;4916457;29;19914;-69
2023/04/26 01:25:56;;;;;;;;;;;4.40;99.90;;;;;;4917743;29;19911;-70
2023/04/26 01:28:23;;;;;;;;;;;4.40;99.90;;;;;;4916367;29;19942;-69
2023/04/26 01:30:48;;;;;;;;;;;4.40;99.90;;;;;;4917186;29;20358;-70
2023/04/26 01:33:14;;;;;;;;;;;4.40;99.90;;;;;;4917535;29;19915;-70
2023/04/26 01:35:40;;;;;;;;;;;4.40;99.90;;;;;;4920486;29;19915;-69
2023/04/26 01:38:09;;;;;;;;;;;4.30;99.90;;;;;;4919437;29;20343;-70
2023/04/26 01:40:35;;;;;;;;;;;4.20;99.90;;;;;;4935950;29;19949;-70
2023/04/26 01:43:02;;;;;;;;;;;4.10;99.90;;;;;;4917347;29;20367;-69
2023/04/26 01:45:29;;;;;;;;;;;4.30;99.90;;;;;;4914736;29;19926;-69
2023/04/26 01:47:55;;;;;;;;;;;4.10;99.90;;;;;;4922059;29;19950;-69
2023/04/26 01:50:22;;;;;;;;;;;4.20;99.90;;;;;;4913829;29;20443;-70
2023/04/26 01:52:48;;;;;;;;;;;4.20;99.90;;;;;;4926378;29;19969;-70
2023/04/26 01:55:13;;;;;;;;;;;4.10;99.90;;;;;;4924126;29;20631;-69
2023/04/26 01:57:39;;;;;;;;;;;4.10;99.90;;;;;;4916293;29;19946;-69
2023/04/26 02:00:05;;;;;;;;;;;4.10;99.90;;;;;;4918012;29;20095;-70
2023/04/26 02:02:32;;;;;;;;;;;4.10;99.90;;;;;;4917128;29;19944;-69
2023/04/26 02:04:57;;;;;;;;;;;4.10;99.90;;;;;;4913089;29;20018;-70
2023/04/26 02:07:23;;;;;;;;;;;4.30;99.90;;;;;;4912709;29;19922;-69
2023/04/26 02:09:49;;;;;;;;;;;4.20;99.90;;;;;;4924039;29;20645;-69
2023/04/26 02:12:14;;;;;;;;;;;4.10;99.90;;;;;;4901544;29;20001;-70
2023/04/26 02:14:41;;;;;;;;;;;4.00;99.90;;;;;;4907196;29;19919;-70
2023/04/26 02:17:07;;;;;;;;;;;4.10;99.90;;;;;;4934722;29;20644;-70
2023/04/26 02:19:33;;;;;;;;;;;4.10;99.90;;;;;;4917886;29;19970;-69
2023/04/26 02:21:59;;;;;;;;;;;4.20;99.90;;;;;;4923378;29;19919;-69
2023/04/26 02:24:24;;;;;;;;;;;4.10;99.90;;;;;;4917124;29;20017;-70
2023/04/26 02:26:51;;;;;;;;;;;3.90;99.90;;;;;;4906657;29;19915;-70
2023/04/26 02:29:18;;;;;;;;;;;4.00;99.90;;;;;;4915431;29;20379;-70
2023/04/26 02:31:44;;;;;;;;;;;4.00;99.90;;;;;;4931572;29;19926;-70
2023/04/26 02:34:09;;;;;;;;;;;4.00;99.90;;;;;;4910659;29;20585;-70
2023/04/26 02:36:35;;;;;;;;;;;3.90;99.90;;;;;;4917077;29;19958;-69
2023/04/26 02:39:01;;;;;;;;;;;3.90;99.90;;;;;;4915755;29;20542;-70
2023/04/26 02:41:30;;;;;;;;;;;3.80;99.90;;;;;;4894546;29;20319;-70
2023/04/26 02:43:55;;;;;;;;;;;3.80;99.90;;;;;;4916831;29;19918;-70
2023/04/26 02:46:21;;;;;;;;;;;3.80;99.90;;;;;;4917408;29;19914;-70
2023/04/26 02:48:47;;;;;;;;;;;3.80;99.90;;;;;;4926470;29;19926;-70
2023/04/26 02:51:12;;;;;;;;;;;3.90;99.90;;;;;;4917752;29;19911;-70
2023/04/26 02:53:38;;;;;;;;;;;3.80;99.90;;;;;;4907289;29;19926;-70
2023/04/26 02:56:05;;;;;;;;;;;3.70;99.90;;;;;;4929659;29;19934;-69
2023/04/26 02:58:31;;;;;;;;;;;3.80;99.90;;;;;;4947426;29;19950;-70
2023/04/26 03:00:57;;;;;;;;;;;3.70;99.90;;;;;;4931268;29;19957;-70
2023/04/26 03:03:24;;;;;;;;;;;3.80;99.90;;;;;;4928143;29;19949;-70
2023/04/26 03:05:50;;;;;;;;;;;3.70;99.90;;;;;;4947522;29;20316;-70
2023/04/26 03:08:15;;;;;;;;;;;3.80;99.90;;;;;;4915829;29;19923;-70
2023/04/26 03:10:43;;;;;;;;;;;3.80;99.90;;;;;;4947880;29;19915;-70
2023/04/26 03:13:08;;;;;;;;;;;3.70;99.90;;;;;;4932149;29;19915;-70
2023/04/26 03:15:34;;;;;;;;;;;3.60;99.90;;;;;;4916107;29;19970;-70
2023/04/26 03:18:00;;;;;;;;;;;3.70;99.90;;;;;;4944564;29;19923;-70
2023/04/26 03:20:25;;;;;;;;;;;3.70;99.90;;;;;;4916663;29;19978;-70
2023/04/26 03:22:51;;;;;;;;;;;3.70;99.90;;;;;;4914452;29;19915;-70
2023/04/26 03:25:17;;;;;;;;;;;3.70;99.90;;;;;;4931605;29;19914;-70
2023/04/26 03:27:43;;;;;;;;;;;3.70;99.90;;;;;;4931073;29;19915;-70
2023/04/26 03:30:09;;;;;;;;;;;3.70;99.90;;;;;;4910937;29;20396;-69
2023/04/26 03:32:34;;;;;;;;;;;3.60;99.90;;;;;;4915724;29;20239;-70
2023/04/26 03:35:00;;;;;;;;;;;3.60;99.90;;;;;;4946513;29;20253;-70
2023/04/26 03:37:25;;;;;;;;;;;3.70;99.90;;;;;;4916166;29;20684;-70
2023/04/26 03:39:52;;;;;;;;;;;3.70;99.90;;;;;;4915921;29;19951;-70
2023/04/26 03:42:19;;;;;;;;;;;3.60;99.90;;;;;;4915269;29;19926;-70
2023/04/26 03:44:45;;;;;;;;;;;3.70;99.90;;;;;;4929048;29;20333;-70
2023/04/26 03:47:10;;;;;;;;;;;3.60;99.90;;;;;;4915312;29;19918;-70
2023/04/26 03:49:36;;;;;;;;;;;3.60;99.90;;;;;;4946211;29;19998;-70
2023/04/26 03:52:02;;;;;;;;;;;3.60;99.90;;;;;;4916287;29;19978;-70
2023/04/26 03:54:28;;;;;;;;;;;3.70;99.90;;;;;;4915198;29;19915;-70
2023/04/26 03:56:54;;;;;;;;;;;3.70;99.90;;;;;;4947308;29;19919;-70
2023/04/26 03:59:19;;;;;;;;;;;3.70;99.90;;;;;;4915493;29;19988;-70
2023/04/26 04:01:45;;;;;;;;;;;3.70;99.90;;;;;;4931413;29;20006;-70
2023/04/26 04:04:10;;;;;;;;;;;3.70;99.90;;;;;;4911958;29;19918;-71
2023/04/26 04:06:37;;;;;;;;;;;3.60;99.90;;;;;;4931208;29;20216;-70
2023/04/26 04:09:04;;;;;;;;;;;3.50;99.90;;;;;;4943737;29;19911;-69
2023/04/26 04:11:30;;;;;;;;;;;3.60;99.90;;;;;;4914732;29;19974;-70
2023/04/26 04:13:57;;;;;;;;;;;3.60;99.90;;;;;;4914503;29;19915;-70
2023/04/26 04:16:23;;;;;;;;;;;3.60;99.90;;;;;;4946752;29;19950;-69
2023/04/26 04:18:49;;;;;;;;;;;3.60;99.90;;;;;;4929541;29;19950;-70
2023/04/26 04:21:14;;;;;;;;;;;3.60;99.90;;;;;;4915039;29;20351;-70
2023/04/26 04:23:41;;;;;;;;;;;3.70;99.90;;;;;;4945630;29;19915;-70
2023/04/26 04:26:06;;;;;;;;;;;3.60;99.90;;;;;;4930966;29;20305;-69
2023/04/26 04:28:33;;;;;;;;;;;3.60;99.90;;;;;;4914310;29;20010;-69
2023/04/26 04:31:00;;;;;;;;;;;3.60;99.90;;;;;;4915110;29;19915;-70
2023/04/26 04:33:27;;;;;;;;;;;3.50;99.90;;;;;;4946039;29;19930;-70
2023/04/26 04:35:53;;;;;;;;;;;3.70;99.90;;;;;;4905212;29;20293;-70
2023/04/26 04:38:20;;;;;;;;;;;3.60;99.90;;;;;;4914788;29;19977;-70
2023/04/26 04:40:48;;;;;;;;;;;3.60;99.90;;;;;;4942332;29;19997;-70
2023/04/26 04:43:15;;;;;;;;;;;3.60;99.90;;;;;;4941884;29;19978;-70
2023/04/26 04:45:41;;;;;;;;;;;3.60;99.90;;;;;;4928197;29;19998;-70
2023/04/26 04:48:07;;;;;;;;;;;3.60;99.90;;;;;;4913004;29;19994;-70
2023/04/26 04:50:34;;;;;;;;;;;3.60;99.90;;;;;;4929235;29;19915;-70
2023/04/26 04:53:00;;;;;;;;;;;3.60;99.90;;;;;;4942012;28;20353;-70
2023/04/26 04:55:26;;;;;;;;;;;3.50;99.90;;;;;;4940102;29;19961;-69
2023/04/26 04:57:52;;;;;;;;;;;3.60;99.90;;;;;;4934144;29;20337;-69
2023/04/26 05:00:18;;;;;;;;;;;3.60;99.90;;;;;;4930545;29;20330;-70
2023/04/26 05:02:43;;;;;;;;;;;3.70;99.90;;;;;;4946787;29;19914;-70
2023/04/26 05:05:09;;;;;;;;;;;3.70;99.90;;;;;;4943636;29;19915;-70
2023/04/26 05:07:35;;;;;;;;;;;3.70;99.90;;;;;;4933623;29;20199;-70
2023/04/26 05:10:01;;;;;;;;;;;3.70;99.90;;;;;;4934983;29;19953;-70
2023/04/26 05:12:27;;;;;;;;;;;3.80;99.90;;;;;;4934426;29;20520;-70
2023/04/26 05:14:52;;;;;;;;;;;3.90;99.90;;;;;;4944967;29;19921;-70
2023/04/26 05:17:19;;;;;;;;;;;3.80;99.90;;;;;;4933613;29;19918;-70
2023/04/26 05:19:46;;;;;;;;;;;3.90;99.90;;;;;;4933428;29;20001;-70
2023/04/26 05:22:17;;;;;;;;;;;4.00;99.90;;;;;;4927256;29;20277;-70
2023/04/26 05:24:46;;;;;;;;;;;3.90;99.90;;;;;;4917748;29;19942;-70
2023/04/26 05:27:12;;;;;;;;;;;4.10;99.90;;;;;;4933297;29;20008;-70
2023/04/26 05:29:37;;;;;;;;;;;4.00;99.90;;;;;;4933130;29;19946;-69
2023/04/26 05:32:03;;;;;;;;;;;4.10;99.90;;;;;;4932815;29;20005;-69
2023/04/26 05:34:29;;;;;;;;;;;4.10;99.90;;;;;;4948180;29;20235;-70
2023/04/26 05:36:55;;;;;;;;;;;4.10;99.90;;;;;;4928217;29;20307;-70
2023/04/26 05:39:20;;;;;;;;;;;4.10;99.90;;;;;;4932762;29;19925;-70
2023/04/26 05:41:46;;;;;;;;;;;4.10;99.90;;;;;;4930125;29;20581;-70
2023/04/26 05:44:12;;;;;;;;;;;4.30;99.90;;;;;;4932830;29;19921;-70
2023/04/26 05:46:38;;;;;;;;;;;4.20;99.90;;;;;;4933358;29;20021;-70
2023/04/26 05:49:03;;;;;;;;;;;4.30;99.90;;;;;;4934928;29;20049;-70
2023/04/26 05:51:29;;;;;;;;;;;4.30;99.90;;;;;;4934884;29;20370;-71
2023/04/26 05:53:56;;;;;;;;;;;4.40;99.90;;;;;;4936927;29;19924;-70
2023/04/26 05:56:23;;;;;;;;;;;4.30;99.90;;;;;;4930685;29;19954;-69
2023/04/26 05:58:48;;;;;;;;;;;4.40;99.90;;;;;;4915149;29;19981;-70
2023/04/26 06:01:14;;;;;;;;;;;4.30;99.90;;;;;;4916121;29;19978;-70
2023/04/26 06:03:40;;;;;;;;;;;4.40;99.90;;;;;;4919036;29;19933;-69
2023/04/26 06:06:06;;;;;;;;;;;4.30;99.90;;;;;;4908479;29;20001;-71
2023/04/26 06:08:32;;;;;;;;;;;4.30;99.90;;;;;;4889184;29;19915;-69
2023/04/26 06:10:58;;;;;;;;;;;4.40;99.90;;;;;;4908506;29;20350;-71
2023/04/26 06:13:23;;;;;;;;;;;4.40;99.90;;;;;;4905069;29;20002;-69
2023/04/26 06:15:49;;;;;;;;;;;4.40;99.90;;;;;;4907678;29;19915;-70
2023/04/26 06:18:15;;;;;;;;;;;4.40;99.90;;;;;;4918047;29;19942;-70
2023/04/26 06:20:41;;;;;;;;;;;4.40;99.90;;;;;;4904340;29;19922;-69
2023/04/26 06:23:06;;;;;;;;;;;4.40;99.90;;;;;;4917971;29;19915;-70
2023/04/26 06:25:33;;;;;;;;;;;4.50;99.90;;;;;;4901339;29;19919;-70
2023/04/26 06:27:59;;;;;;;;;;;4.50;99.90;;;;;;4903982;29;19915;-70
2023/04/26 06:30:25;;;;;;;;;;;4.50;99.90;;;;;;4918214;29;19926;-70
2023/04/26 06:32:50;;;;;;;;;;;4.60;99.90;;;;;;4899846;29;19915;-70
2023/04/26 06:35:16;;;;;;;;;;;4.70;99.90;;;;;;4918178;29;19946;-69
2023/04/26 06:37:42;;;;;;;;;;;4.70;99.90;;;;;;4899680;29;19918;-70
2023/04/26 06:40:08;;;;;;;;;;;4.70;99.90;;;;;;4882160;29;20336;-70
2023/04/26 06:42:33;;;;;;;;;;;4.80;99.90;;;;;;4899131;29;19915;-70
2023/04/26 06:44:59;;;;;;;;;;;4.90;99.90;;;;;;4915735;29;19946;-70
2023/04/26 06:47:25;;;;;;;;;;;4.90;99.90;;;;;;4900053;29;20324;-70
2023/04/26 06:49:50;;;;;;;;;;;4.90;99.90;;;;;;4899042;29;19930;-70
2023/04/26 06:52:16;;;;;;;;;;;5.00;99.90;;;;;;4915989;29;19911;-70
2023/04/26 06:54:42;;;;;;;;;;;4.90;99.90;;;;;;4901621;29;19923;-70
2023/04/26 06:57:08;;;;;;;;;;;5.00;99.90;;;;;;4915631;29;19968;-70
2023/04/26 06:59:34;;;;;;;;;;;5.10;99.90;;;;;;4931331;29;19922;-70
2023/04/26 07:02:01;;;;;;;;;;;5.10;99.90;;;;;;4916139;29;19950;-70
2023/04/26 07:04:26;;;;;;;;;;;5.10;99.90;;;;;;4909669;29;19925;-70
2023/04/26 07:06:52;;;;;;;;;;;5.20;99.90;;;;;;4915060;29;20328;-70
2023/04/26 07:09:17;;;;;;;;;;;5.30;99.90;;;;;;4915470;29;20324;-70
2023/04/26 07:11:46;;;;;;;;;;;5.20;99.90;;;;;;4915254;29;20228;-69
2023/04/26 07:14:12;;;;;;;;;;;5.30;99.90;;;;;;4915854;29;19915;-70
2023/04/26 07:16:37;;;;;;;;;;;5.30;99.90;;;;;;4916323;29;19922;-70
2023/04/26 07:19:03;;;;;;;;;;;5.40;99.90;;;;;;4930975;29;19911;-69
2023/04/26 07:21:29;;;;;;;;;;;5.40;99.90;;;;;;4913946;29;19915;-70
2023/04/26 07:23:55;;;;;;;;;;;5.50;99.90;;;;;;4915277;29;19915;-70
2023/04/26 07:26:21;;;;;;;;;;;5.60;99.90;;;;;;4915370;29;20231;-70
2023/04/26 07:28:46;;;;;;;;;;;5.70;99.90;;;;;;4915619;29;20251;-70
2023/04/26 07:31:12;;;;;;;;;;;5.80;99.90;;;;;;4914639;29;19911;-70
2023/04/26 07:33:38;;;;;;;;;;;5.80;99.90;;;;;;4915153;29;19950;-69
2023/04/26 07:36:04;;;;;;;;;;;5.80;99.90;;;;;;4899234;29;19915;-70
2023/04/26 07:38:30;;;;;;;;;;;5.90;99.90;;;;;;4893290;29;20293;-69
2023/04/26 07:40:55;;;;;;;;;;;6.00;99.90;;;;;;4930307;29;20593;-70
2023/04/26 07:43:21;;;;;;;;;;;5.80;99.90;;;;;;4911036;29;19915;-70
2023/04/26 07:45:47;;;;;;;;;;;5.90;99.90;;;;;;4914845;29;20006;-70
2023/04/26 07:48:13;;;;;;;;;;;6.10;99.90;;;;;;4912267;29;20368;-70
2023/04/26 07:50:39;;;;;;;;;;;6.20;99.90;;;;;;4914067;29;19915;-70
2023/04/26 07:53:05;;;;;;;;;;;6.30;99.90;;;;;;4914074;29;19919;-70
2023/04/26 07:55:30;;;;;;;;;;;6.40;99.90;;;;;;4916399;29;19926;-70
2023/04/26 07:57:56;;;;;;;;;;;6.40;99.90;;;;;;4917307;29;19928;-70
2023/04/26 08:00:22;;;;;;;;;;;6.40;99.90;;;;;;4914149;29;19925;-70
2023/04/26 08:02:48;;;;;;;;;;;6.40;99.90;;;;;;4913174;29;20094;-70
2023/04/26 08:05:14;;;;;;;;;;;6.70;99.90;;;;;;4910401;29;20094;-69
2023/04/26 08:07:40;;;;;;;;;;;6.80;99.90;;;;;;4899256;29;19914;-70
2023/04/26 08:10:05;;;;;;;;;;;6.70;99.90;;;;;;4914241;29;19926;-70
2023/04/26 08:12:34;;;;;;;;;;;6.80;99.90;;;;;;4909259;29;20451;-70
2023/04/26 08:15:00;;;;;;;;;;;6.60;99.90;;;;;;4915466;29;20170;-70
2023/04/26 08:17:26;;;;;;;;;;;6.70;99.90;;;;;;4913720;29;19923;-70
2023/04/26 08:19:51;;;;;;;;;;;6.80;99.90;;;;;;4892697;29;20507;-70
2023/04/26 08:22:17;;;;;;;;;;;6.80;99.90;;;;;;4910770;29;19918;-70
2023/04/26 08:24:46;;;;;;;;;;;7.00;99.90;;;;;;4914378;29;20344;-70
2023/04/26 08:27:12;;;;;;;;;;;7.10;99.90;;;;;;4915938;29;19914;-70
2023/04/26 08:29:37;;;;;;;;;;;7.10;99.90;;;;;;4916420;29;19982;-70
2023/04/26 08:32:03;;;;;;;;;;;6.90;99.90;;;;;;4907536;29;20340;-69
2023/04/26 08:34:29;;;;;;;;;;;6.90;99.90;;;;;;4896953;29;19926;-69
2023/04/26 08:36:54;;;;;;;;;;;7.00;99.90;;;;;;4911323;29;19919;-69
2023/04/26 08:39:20;;;;;;;;;;;7.00;99.90;;;;;;4916564;29;20360;-69
2023/04/26 08:41:48;;;;;;;;;;;7.20;99.90;;;;;;4914880;29;19967;-69
2023/04/26 08:44:14;;;;;;;;;;;7.40;99.90;;;;;;4908237;29;20007;-69
2023/04/26 08:46:46;;;;;;;;;;;7.50;99.90;;;;;;4916607;29;20311;-68
2023/04/26 08:49:20;;;;;;;;;;;7.30;99.90;;;;;;4901482;29;19925;-69
2023/04/26 08:51:45;;;;;;;;;;;7.30;99.60;;;;;;4894044;29;19918;-69
2023/04/26 08:54:11;;;;;;;;;;;7.60;99.90;;;;;;4917532;29;19926;-69
2023/04/26 08:56:38;;;;;;;;;;;7.40;97.80;;;;;;4947163;29;19914;-69
2023/04/26 08:59:03;;;;;;;;;;;7.50;99.10;;;;;;4933210;29;19937;-68
2023/04/26 09:01:29;;;;;;;;;;;7.40;98.80;;;;;;4916364;29;20312;-69
2023/04/26 09:03:55;;;;;;;;;;;7.20;99.60;;;;;;4943214;29;20275;-69
2023/04/26 09:06:21;;;;;;;;;;;7.30;99.80;;;;;;4926263;29;19922;-68
2023/04/26 09:08:47;;;;;;;;;;;7.40;99.80;;;;;;4918237;29;19929;-70
2023/04/26 09:11:12;;;;;;;;;;;7.40;98.60;;;;;;4928257;29;19918;-69
2023/04/26 09:13:38;;;;;;;;;;;7.60;98.80;;;;;;4930140;29;20330;-70
2023/04/26 09:16:04;;;;;;;;;;;7.60;98.60;;;;;;4924363;29;19914;-69
2023/04/26 09:18:32;;;;;;;;;;;7.70;98.70;;;;;;4935534;29;19915;-70
2023/04/26 09:21:05;;;;;;;;;;;7.50;98.50;;;;;;4924581;29;19918;-70
2023/04/26 09:23:31;;;;;;;;;;;7.60;98.00;;;;;;4950580;29;19914;-69
2023/04/26 09:26:19;;;;;;;;;;;7.50;97.10;;;;;;4944107;29;20283;-68
2023/04/26 09:28:46;;;;;;;;;;;7.40;96.50;;;;;;4945756;29;20315;-68
2023/04/26 09:31:32;;;;;;;;;;;7.50;97.00;;;;;;4944364;29;19911;-69
2023/04/26 09:33:58;;;;;;;;;;;7.60;97.50;;;;;;4920537;29;19962;-68
2023/04/26 09:36:24;;;;;;;;;;;7.50;97.60;;;;;;4944066;29;20010;-69
2023/04/26 09:38:49;;;;;;;;;;;7.60;98.30;;;;;;4946048;29;20001;-69
2023/04/26 09:41:15;;;;;;;;;;;7.70;97.90;;;;;;4941703;29;19922;-69
2023/04/26 09:43:41;;;;;;;;;;;7.70;97.80;;;;;;4930587;29;19926;-69
2023/04/26 09:46:06;;;;;;;;;;;7.70;96.20;;;;;;4944861;29;19966;-69
2023/04/26 09:48:33;;;;;;;;;;;7.70;95.90;;;;;;4937703;29;19985;-69
2023/04/26 09:51:02;;;;;;;;;;;7.70;96.40;;;;;;4943579;29;20316;-70
2023/04/26 09:53:33;;;;;;;;;;;7.70;95.90;;;;;;4941735;29;19918;-69
2023/04/26 09:56:17;;;;;;;;;;;7.70;95.90;;;;;;4944475;29;20239;-70
2023/04/26 09:58:43;;;;;;;;;;;7.70;95.90;;;;;;4927653;29;19925;-69
2023/04/26 10:01:09;;;;;;;;;;;7.60;96.00;;;;;;4915935;29;19914;-69
2023/04/26 10:03:34;;;;;;;;;;;7.70;95.90;;;;;;4927731;29;19914;-68
2023/04/26 10:06:00;;;;;;;;;;;7.80;95.90;;;;;;4944165;29;20293;-69
2023/04/26 10:08:26;;;;;;;;;;;7.90;95.50;;;;;;4949871;29;20336;-69
2023/04/26 10:10:52;;;;;;;;;;;7.70;95.40;;;;;;4921782;29;19978;-69
2023/04/26 10:13:17;;;;;;;;;;;7.70;95.60;;;;;;4929604;29;19929;-68
2023/04/26 10:15:44;;;;;;;;;;;7.60;95.40;;;;;;4937519;29;19946;-69
2023/04/26 10:18:10;;;;;;;;;;;7.70;96.10;;;;;;4943194;29;19925;-69
2023/04/26 10:20:43;;;;;;;;;;;7.90;96.00;;;;;;4933547;29;20391;-69
2023/04/26 10:23:15;;;;;;;;;;;8.10;95.50;;;;;;4937032;29;19915;-69
2023/04/26 10:25:41;;;;;;;;;;;8.20;95.00;;;;;;4924705;29;20001;-69
2023/04/26 10:28:08;;;;;;;;;;;8.20;94.80;;;;;;4927393;29;20013;-69
2023/04/26 10:30:34;;;;;;;;;;;8.30;92.30;;;;;;4937284;29;20324;-69
2023/04/26 10:33:00;;;;;;;;;;;8.20;91.40;;;;;;4941643;29;20302;-69
2023/04/26 10:35:26;;;;;;;;;;;8.20;91.60;;;;;;4942367;29;19985;-69
2023/04/26 10:37:58;;;;;;;;;;;8.10;91.50;;;;;;4926242;29;20335;-69
2023/04/26 10:40:37;;;;;;;;;;;8.10;88.70;;;;;;4948604;29;19914;-70
2023/04/26 10:43:10;;;;;;;;;;;8.20;90.20;;;;;;4928649;29;19914;-70
2023/04/26 10:45:36;;;;;;;;;;;8.20;90.70;;;;;;4932740;29;19918;-69
2023/04/26 10:48:20;;;;;;;;;;;8.10;90.50;;;;;;4938584;29;20546;-69
2023/04/26 10:51:00;;;;;;;;;;;8.00;91.30;;;;;;4945355;29;20005;-70
2023/04/26 10:53:26;;;;;;;;;;;8.10;91.80;;;;;;4940818;29;19988;-70
2023/04/26 10:55:52;;;;;;;;;;;8.00;91.80;;;;;;4932102;29;19926;-68
2023/04/26 10:58:27;;;;;;;;;;;8.00;91.60;;;;;;4935215;29;19930;-70
2023/04/26 11:01:12;;;;;;;;;;;8.00;90.70;;;;;;4932382;29;19921;-69
2023/04/26 11:03:39;;;;;;;;;;;8.00;90.30;;;;;;4947463;29;20323;-70
2023/04/26 11:06:08;;;;;;;;;;;8.20;89.50;;;;;;4931246;29;19973;-69
2023/04/26 11:08:36;;;;;;;;;;;8.30;89.90;;;;;;4919358;29;20251;-69
2023/04/26 11:11:01;;;;;;;;;;;8.10;90.00;;;;;;4934696;29;20276;-69
2023/04/26 11:13:37;;;;;;;;;;;8.10;89.90;;;;;;4935630;29;20278;-69
2023/04/26 11:16:04;;;;;;;;;;;8.10;90.10;;;;;;4935568;29;19914;-70
2023/04/26 11:18:30;;;;;;;;;;;8.00;89.30;;;;;;4935137;29;20017;-69
2023/04/26 11:20:56;;;;;;;;;;;8.00;89.80;;;;;;4951606;29;19953;-68
2023/04/26 11:23:22;;;;;;;;;;;8.10;88.50;;;;;;4935049;29;19925;-69
2023/04/26 11:25:48;;;;;;;;;;;8.10;89.10;;;;;;4951136;29;19915;-69
2023/04/26 11:28:14;;;;;;;;;;;8.20;87.50;;;;;;4930975;29;20518;-70
2023/04/26 11:30:40;;;;;;;;;;;8.20;87.80;;;;;;4936511;29;19914;-69
2023/04/26 11:33:08;;;;;;;;;;;8.30;88.90;;;;;;4951082;29;19928;-69
2023/04/26 11:35:34;;;;;;;;;;;8.30;87.80;;;;;;4949479;29;19926;-70
2023/04/26 11:38:00;;;;;;;;;;;8.10;89.90;;;;;;4934494;29;19918;-69
2023/04/26 11:40:32;;;;;;;;;;;8.30;90.10;;;;;;4950691;29;19925;-69
2023/04/26 11:43:02;;;;;;;;;;;8.30;89.10;;;;;;4918937;29;20328;-69
2023/04/26 11:45:30;;;;;;;;;;;8.40;89.20;;;;;;4918429;29;19970;-69
2023/04/26 11:47:56;;;;;;;;;;;8.40;89.20;;;;;;4934420;29;19914;-69
2023/04/26 11:50:25;;;;;;;;;;;8.20;88.30;;;;;;4943872;29;19978;-69
2023/04/26 11:52:56;;;;;;;;;;;8.10;85.30;;;;;;4934322;29;19985;-69
2023/04/26 11:55:30;;;;;;;;;;;8.10;86.30;;;;;;4934376;29;20308;-69
2023/04/26 11:57:56;;;;;;;;;;;8.10;86.00;;;;;;4933777;29;19929;-69
2023/04/26 12:00:23;;;;;;;;;;;8.30;87.00;;;;;;4946858;29;19915;-70
2023/04/26 12:02:49;;;;;;;;;;;8.40;86.20;;;;;;4918951;29;20009;-69
2023/04/26 12:05:30;;;;;;;;;;;8.70;87.00;;;;;;4948097;29;19989;-69
2023/04/26 12:07:57;;;;;;;;;;;9.20;85.80;;;;;;4935170;29;19919;-69
2023/04/26 12:10:23;;;;;;;;;;;9.40;83.40;;;;;;4935421;29;19921;-68
2023/04/26 12:12:49;;;;;;;;;;;9.50;80.70;;;;;;4948848;29;19922;-69
2023/04/26 12:15:16;;;;;;;;;;;9.50;81.40;;;;;;4934678;29;19921;-69
2023/04/26 12:17:54;;;;;;;;;;;9.50;83.70;;;;;;4936234;29;19922;-69
2023/04/26 12:20:30;;;;;;;;;;;9.50;83.70;;;;;;4933698;29;19953;-69
2023/04/26 12:23:00;;;;;;;;;;;9.70;83.90;;;;;;4934940;29;19977;-69
2023/04/26 12:25:25;;;;;;;;;;;10.00;84.40;;;;;;4935669;29;19926;-69
2023/04/26 12:27:51;;;;;;;;;;;10.20;82.40;;;;;;4934922;29;19915;-69
2023/04/26 12:30:17;;;;;;;;;;;10.20;79.70;;;;;;4950561;29;20005;-70
2023/04/26 12:32:42;;;;;;;;;;;10.20;78.90;;;;;;4918103;29;19915;-68
2023/04/26 12:35:08;;;;;;;;;;;10.20;78.80;;;;;;4933616;29;20313;-69
2023/04/26 12:37:34;;;;;;;;;;;10.40;75.50;;;;;;4949397;29;19918;-68
2023/04/26 12:40:00;;;;;;;;;;;10.10;76.60;;;;;;4950063;29;19919;-69
2023/04/26 12:42:26;;;;;;;;;;;10.00;76.20;;;;;;4948916;29;19919;-69
2023/04/26 12:44:51;;;;;;;;;;;10.30;75.60;;;;;;4950210;29;19944;-70
2023/04/26 12:47:18;;;;;;;;;;;10.40;76.00;;;;;;4950477;29;20227;-69
2023/04/26 12:49:44;;;;;;;;;;;10.50;70.70;;;;;;4917044;29;19915;-69
2023/04/26 12:52:14;;;;;;;;;;;10.90;75.00;;;;;;4933683;29;19990;-69
2023/04/26 12:54:40;;;;;;;;;;;11.10;71.90;;;;;;4933052;29;20001;-70
2023/04/26 12:57:06;;;;;;;;;;;10.90;69.20;;;;;;4915669;29;20854;-70
2023/04/26 12:59:32;;;;;;;;;;;10.80;69.00;;;;;;4914808;29;19922;-70
2023/04/26 13:01:57;;;;;;;;;;;10.60;71.50;;;;;;4926718;29;19915;-69
2023/04/26 13:04:23;;;;;;;;;;;10.40;71.90;;;;;;4933594;29;19919;-70
2023/04/26 13:06:49;;;;;;;;;;;10.20;72.40;;;;;;4921225;29;20685;-69
2023/04/26 13:09:14;;;;;;;;;;;10.30;73.00;;;;;;4921154;29;20213;-70
2023/04/26 13:11:40;;;;;;;;;;;10.20;72.40;;;;;;4934714;29;19921;-69
2023/04/26 13:14:06;;;;;;;;;;;10.60;71.00;;;;;;4918978;29;20323;-69
2023/04/26 13:16:32;;;;;;;;;;;10.70;71.10;;;;;;4919283;29;19915;-69
2023/04/26 13:18:58;;;;;;;;;;;10.60;71.30;;;;;;4906045;29;19922;-69
2023/04/26 13:21:23;;;;;;;;;;;10.50;69.90;;;;;;4922124;29;19954;-69
2023/04/26 13:23:49;;;;;;;;;;;10.30;69.70;;;;;;4917628;29;19915;-69
2023/04/26 13:26:17;;;;;;;;;;;10.10;70.70;;;;;;4921623;29;20337;-71
2023/04/26 13:28:42;;;;;;;;;;;10.10;70.30;;;;;;4915402;29;19945;-70
2023/04/26 13:31:10;;;;;;;;;;;10.00;69.00;;;;;;4921220;29;20335;-70
2023/04/26 13:33:36;;;;;;;;;;;9.90;68.70;;;;;;4915579;29;20664;-70
2023/04/26 13:36:02;;;;;;;;;;;9.70;69.20;;;;;;4918135;29;19911;-69
2023/04/26 13:38:27;;;;;;;;;;;9.70;69.30;;;;;;4913528;29;19919;-70
2023/04/26 13:40:53;;;;;;;;;;;9.80;70.00;;;;;;4902255;29;20329;-70
2023/04/26 13:43:19;;;;;;;;;;;9.70;69.30;;;;;;4917139;29;19919;-69
2023/04/26 13:45:44;;;;;;;;;;;9.80;70.80;;;;;;4931985;29;20006;-70
2023/04/26 13:48:10;;;;;;;;;;;9.60;68.40;;;;;;4924756;29;20082;-69
2023/04/26 13:50:36;;;;;;;;;;;9.60;69.60;;;;;;4914976;29;19930;-70
2023/04/26 13:53:01;;;;;;;;;;;9.60;71.70;;;;;;4916045;29;19915;-70
2023/04/26 13:55:28;;;;;;;;;;;9.40;73.10;;;;;;4913803;29;19973;-69
2023/04/26 13:57:54;;;;;;;;;;;9.40;73.20;;;;;;4953030;29;19918;-69
2023/04/26 14:00:20;;;;;;;;;;;9.30;74.00;;;;;;4936430;29;19914;-69
2023/04/26 14:02:46;;;;;;;;;;;9.30;73.90;;;;;;4921005;29;19958;-69
2023/04/26 14:05:12;;;;;;;;;;;9.20;74.30;;;;;;4936953;29;20005;-70
2023/04/26 14:07:39;;;;;;;;;;;9.20;74.30;;;;;;4952534;29;19915;-70
2023/04/26 14:10:05;;;;;;;;;;;9.20;74.20;;;;;;4935577;29;19915;-69
2023/04/26 14:12:30;;;;;;;;;;;9.20;74.20;;;;;;4938131;29;19924;-70
2023/04/26 14:14:56;;;;;;;;;;;9.20;73.60;;;;;;4933685;29;20724;-70
2023/04/26 14:17:21;;;;;;;;;;;9.20;74.50;;;;;;4936834;29;20339;-69
2023/04/26 14:19:47;;;;;;;;;;;9.30;73.90;;;;;;4952876;29;19921;-69
2023/04/26 14:22:16;;;;;;;;;;;9.30;74.50;;;;;;4936280;29;19915;-69
2023/04/26 14:24:42;;;;;;;;;;;9.40;74.70;;;;;;4930496;29;19995;-70